Time;durP1;ratioP1;P1;durP2;ratioP2;P2;SDS_P1;SDS_P2;PMS_P1;PMS_P2;Temp;Humidity;BMP_temperature;BMP_pressure;BME280_temperature;BME280_humidity;BME280_pressure;Samples;Min_cycle;Max_cycle;Signal;HPM_P1;HPM_P2
2021/07/20 00:02:11;;;;;;;1.53;0.90;;;16.40;98.20;;;;;;5016361;28;20460;-79
2021/07/20 00:04:38;;;;;;;1.53;0.90;;;16.30;98.20;;;;;;5025143;28;20460;-79
2021/07/20 00:07:06;;;;;;;1.53;1.00;;;16.30;98.20;;;;;;5016179;28;20482;-79
2021/07/20 00:09:33;;;;;;;1.50;0.90;;;16.30;98.20;;;;;;5015747;28;21038;-79
2021/07/20 00:12:00;;;;;;;1.53;0.90;;;16.30;98.20;;;;;;5008273;28;20907;-79
2021/07/20 00:14:26;;;;;;;1.57;1.00;;;16.20;98.20;;;;;;5014206;28;20990;-79
2021/07/20 00:16:53;;;;;;;1.53;1.00;;;16.20;98.20;;;;;;5007646;28;20479;-79
2021/07/20 00:19:20;;;;;;;1.50;1.00;;;16.20;98.20;;;;;;5016338;28;20464;-77
2021/07/20 00:21:49;;;;;;;1.57;0.90;;;16.20;98.20;;;;;;5004946;28;20471;-80
2021/07/20 00:24:17;;;;;;;1.57;1.00;;;16.20;98.20;;;;;;5030737;28;20536;-79
2021/07/20 00:26:45;;;;;;;1.50;0.90;;;16.20;98.20;;;;;;5021911;28;20455;-79
2021/07/20 00:29:12;;;;;;;1.50;0.90;;;16.10;98.20;;;;;;5031702;28;20481;-78
2021/07/20 00:31:38;;;;;;;1.50;1.00;;;16.10;98.20;;;;;;5021160;28;20474;-79
2021/07/20 00:34:06;;;;;;;1.60;1.00;;;16.10;98.20;;;;;;5032427;28;20540;-79
2021/07/20 00:36:33;;;;;;;1.53;1.00;;;16.10;98.20;;;;;;5021755;28;20487;-80
2021/07/20 00:39:00;;;;;;;1.53;1.00;;;16.10;98.20;;;;;;5033133;28;20463;-79
2021/07/20 00:41:28;;;;;;;1.50;1.00;;;16.10;98.20;;;;;;5014677;28;20468;-80
2021/07/20 00:43:55;;;;;;;2.40;1.37;;;16.10;98.20;;;;;;5028191;28;20452;-78
2021/07/20 00:46:21;;;;;;;1.57;1.07;;;16.00;98.20;;;;;;5018549;28;20518;-78
2021/07/20 00:48:48;;;;;;;1.90;1.63;;;16.00;98.20;;;;;;5034361;28;20487;-78
2021/07/20 00:51:15;;;;;;;1.57;1.00;;;16.00;98.20;;;;;;5014597;28;20706;-78
2021/07/20 00:53:42;;;;;;;1.50;1.00;;;15.90;98.20;;;;;;5023853;28;20848;-78
2021/07/20 00:56:09;;;;;;;1.50;1.00;;;15.90;98.20;;;;;;5012176;28;20532;-78
2021/07/20 00:58:38;;;;;;;1.50;0.90;;;15.90;98.20;;;;;;5020465;28;20556;-77
2021/07/20 01:01:04;;;;;;;1.53;1.00;;;15.90;98.20;;;;;;5009269;28;21016;-79
2021/07/20 01:03:33;;;;;;;1.53;1.00;;;15.90;98.20;;;;;;5032131;28;20841;-80
2021/07/20 01:06:02;;;;;;;1.57;1.00;;;15.80;98.20;;;;;;5008505;28;20480;-79
2021/07/20 01:08:30;;;;;;;1.53;1.00;;;15.80;98.20;;;;;;5017120;28;20493;-79
2021/07/20 01:10:59;;;;;;;1.63;1.20;;;15.80;98.20;;;;;;5010129;28;20495;-79
2021/07/20 01:13:27;;;;;;;1.57;1.00;;;15.80;98.20;;;;;;5025568;28;20517;-77
2021/07/20 01:15:56;;;;;;;1.60;1.10;;;15.80;98.20;;;;;;5011222;28;21010;-77
2021/07/20 01:18:25;;;;;;;1.57;1.00;;;15.70;98.20;;;;;;5023504;28;20459;-79
2021/07/20 01:20:52;;;;;;;1.57;1.00;;;15.70;98.20;;;;;;4996078;28;20492;-78
2021/07/20 01:23:31;;;;;;;1.57;1.00;;;15.70;98.20;;;;;;5016717;28;21541;-79
2021/07/20 01:25:59;;;;;;;1.57;1.03;;;15.70;98.20;;;;;;5001816;28;20492;-79
2021/07/20 01:28:27;;;;;;;1.60;1.13;;;15.70;98.20;;;;;;5011416;28;20494;-79
2021/07/20 01:30:59;;;;;;;1.50;1.00;;;15.60;98.20;;;;;;5002160;28;21052;-79
2021/07/20 01:33:27;;;;;;;1.60;1.00;;;15.60;98.20;;;;;;5014854;28;20468;-78
2021/07/20 01:35:56;;;;;;;1.57;1.00;;;15.60;98.20;;;;;;5001533;28;21053;-80
2021/07/20 01:38:26;;;;;;;1.53;1.00;;;15.60;98.20;;;;;;5026384;28;21118;-79
2021/07/20 01:40:56;;;;;;;1.53;1.00;;;15.50;98.20;;;;;;4992543;28;20539;-79
2021/07/20 01:43:25;;;;;;;1.50;1.00;;;15.50;98.20;;;;;;5022277;28;20463;-80
2021/07/20 01:45:55;;;;;;;1.57;1.00;;;15.50;98.20;;;;;;4994560;28;20473;-79
2021/07/20 01:48:24;;;;;;;1.50;1.00;;;15.50;98.20;;;;;;5025716;28;20484;-79
2021/07/20 01:50:51;;;;;;;1.53;1.00;;;15.50;98.20;;;;;;5007448;28;20967;-79
2021/07/20 01:53:19;;;;;;;1.50;1.00;;;15.50;98.20;;;;;;5024473;28;20460;-79
2021/07/20 01:55:48;;;;;;;1.53;1.00;;;15.40;98.20;;;;;;5003017;28;20901;-79
2021/07/20 01:58:15;;;;;;;1.50;1.00;;;15.40;98.20;;;;;;4995411;28;21053;-79
2021/07/20 02:00:42;;;;;;;1.50;0.90;;;15.40;98.20;;;;;;5009076;28;21138;-80
2021/07/20 02:03:28;;;;;;;1.60;1.10;;;15.40;98.20;;;;;;5016154;28;20488;-79
2021/07/20 02:08:48;;;;;;;1.57;1.00;;;15.30;98.20;;;;;;5024345;28;20506;-80
2021/07/20 02:11:23;;;;;;;1.57;1.00;;;15.30;98.20;;;;;;4997034;28;20492;-78
2021/07/20 02:13:55;;;;;;;1.50;1.00;;;15.30;98.20;;;;;;5021700;28;20555;-80
2021/07/20 02:16:27;;;;;;;1.57;0.93;;;15.20;98.20;;;;;;5004620;28;20475;-80
2021/07/20 02:19:01;;;;;;;1.50;1.00;;;15.20;98.20;;;;;;5020907;28;20469;-79
2021/07/20 02:21:29;;;;;;;1.57;1.00;;;15.20;98.20;;;;;;4992523;28;20490;-79
2021/07/20 02:23:57;;;;;;;1.50;1.00;;;15.20;98.20;;;;;;5026661;28;20456;-79
2021/07/20 02:26:26;;;;;;;1.60;1.00;;;15.20;98.20;;;;;;5008376;28;20612;-78
2021/07/20 02:28:55;;;;;;;1.60;1.20;;;15.10;98.20;;;;;;5016780;28;20501;-79
2021/07/20 02:31:23;;;;;;;1.50;1.00;;;15.10;98.20;;;;;;5004972;28;20543;-80
2021/07/20 02:33:51;;;;;;;1.60;1.10;;;15.10;98.20;;;;;;5019897;28;20471;-79
2021/07/20 02:36:19;;;;;;;1.50;1.10;;;15.10;98.20;;;;;;5009345;28;20482;-77
2021/07/20 02:38:48;;;;;;;1.57;1.00;;;15.10;98.20;;;;;;5023919;28;20543;-79
2021/07/20 02:41:15;;;;;;;1.53;1.00;;;15.10;98.20;;;;;;5004890;28;20478;-79
2021/07/20 02:43:45;;;;;;;1.57;1.00;;;15.10;98.20;;;;;;5015334;28;20464;-79
2021/07/20 02:46:13;;;;;;;1.50;0.97;;;15.00;98.20;;;;;;5003353;28;20481;-78
2021/07/20 02:48:40;;;;;;;1.50;1.00;;;15.00;98.20;;;;;;5016134;28;20483;-79
2021/07/20 02:51:10;;;;;;;1.57;0.90;;;15.00;98.20;;;;;;5010889;28;20463;-79
2021/07/20 02:53:39;;;;;;;1.57;1.00;;;15.00;98.20;;;;;;5031681;28;20473;-79
2021/07/20 02:56:08;;;;;;;1.53;1.00;;;15.00;98.20;;;;;;5013656;28;20592;-79
2021/07/20 02:58:36;;;;;;;1.50;1.00;;;14.90;98.20;;;;;;5030607;28;20456;-79
2021/07/20 03:01:05;;;;;;;1.57;1.00;;;14.90;98.20;;;;;;5001567;28;20465;-77
2021/07/20 03:03:32;;;;;;;1.50;0.90;;;14.90;98.20;;;;;;5032994;28;20472;-80
2021/07/20 03:06:01;;;;;;;1.53;1.00;;;14.90;98.20;;;;;;5000340;28;20488;-80
2021/07/20 03:08:29;;;;;;;1.53;1.00;;;14.80;98.20;;;;;;5023151;28;20485;-79
2021/07/20 03:10:57;;;;;;;1.53;1.00;;;14.80;98.20;;;;;;4997851;28;20873;-79
2021/07/20 03:13:26;;;;;;;1.57;1.00;;;14.80;98.20;;;;;;5029577;28;20468;-79
2021/07/20 03:15:54;;;;;;;1.57;1.10;;;14.80;98.20;;;;;;4999706;28;20480;-79
2021/07/20 03:18:28;;;;;;;1.57;1.00;;;14.80;98.20;;;;;;5015608;28;20832;-79
2021/07/20 03:20:59;;;;;;;1.57;1.00;;;14.80;98.20;;;;;;4990542;28;20465;-79
2021/07/20 03:23:27;;;;;;;1.53;1.00;;;14.80;98.20;;;;;;5028040;28;20468;-80
2021/07/20 03:25:58;;;;;;;1.53;1.00;;;14.80;98.20;;;;;;4998261;28;20483;-79
2021/07/20 03:28:27;;;;;;;1.53;1.00;;;14.70;98.20;;;;;;5030330;28;20475;-79
2021/07/20 03:30:55;;;;;;;1.53;1.00;;;14.70;98.20;;;;;;4999876;28;21015;-78
2021/07/20 03:33:25;;;;;;;1.50;1.00;;;14.70;98.20;;;;;;5010141;28;20464;-79
2021/07/20 03:35:53;;;;;;;1.50;1.00;;;14.70;98.20;;;;;;5002109;28;21103;-79
2021/07/20 03:38:23;;;;;;;1.60;1.10;;;14.70;98.20;;;;;;5027155;28;20796;-79
2021/07/20 03:40:53;;;;;;;1.50;1.00;;;14.70;98.20;;;;;;5002307;28;20496;-79
2021/07/20 03:43:23;;;;;;;1.53;1.00;;;14.60;98.20;;;;;;5030415;28;20472;-78
2021/07/20 03:45:50;;;;;;;1.60;1.10;;;14.60;98.20;;;;;;5001896;28;20938;-79
2021/07/20 03:48:23;;;;;;;1.53;1.00;;;14.60;98.20;;;;;;5013354;28;20760;-79
2021/07/20 03:50:53;;;;;;;1.57;1.07;;;14.60;98.20;;;;;;4996007;28;20995;-78
2021/07/20 03:53:20;;;;;;;1.57;1.00;;;14.60;98.20;;;;;;5010658;28;20464;-79
2021/07/20 03:55:52;;;;;;;1.57;1.00;;;14.60;98.20;;;;;;4996175;28;20492;-78
2021/07/20 03:58:19;;;;;;;1.50;1.00;;;14.60;98.20;;;;;;5030019;28;20486;-78
2021/07/20 04:00:48;;;;;;;1.60;1.10;;;14.60;98.20;;;;;;5007799;28;20461;-78
2021/07/20 04:03:23;;;;;;;1.57;1.00;;;14.60;98.20;;;;;;4998659;28;20556;-78
2021/07/20 04:05:54;;;;;;;1.53;1.00;;;14.60;98.20;;;;;;5003197;28;20483;-79
2021/07/20 04:08:22;;;;;;;1.57;1.00;;;14.60;98.20;;;;;;5016013;28;20884;-78
2021/07/20 04:10:52;;;;;;;1.57;1.00;;;14.60;98.20;;;;;;5005600;28;20483;-77
2021/07/20 04:13:21;;;;;;;1.50;1.00;;;14.60;98.20;;;;;;5016743;28;20586;-79
2021/07/20 04:15:49;;;;;;;1.60;1.10;;;14.60;98.20;;;;;;5007377;28;20488;-79
2021/07/20 04:18:17;;;;;;;1.53;1.00;;;14.60;98.20;;;;;;5031961;28;20492;-80
2021/07/20 04:20:45;;;;;;;1.53;1.00;;;14.60;98.20;;;;;;5015108;28;20456;-79
2021/07/20 04:23:15;;;;;;;1.53;1.00;;;14.60;98.20;;;;;;5003460;28;20535;-80
2021/07/20 04:25:44;;;;;;;1.57;1.00;;;14.70;98.20;;;;;;5016571;28;20476;-79
2021/07/20 04:28:14;;;;;;;1.53;1.00;;;14.70;98.20;;;;;;5010468;28;20500;-79
2021/07/20 04:30:43;;;;;;;1.50;1.00;;;14.70;98.20;;;;;;5011691;28;20488;-80
2021/07/20 04:33:14;;;;;;;1.57;1.00;;;14.70;98.20;;;;;;5018964;28;20894;-78
2021/07/20 04:35:41;;;;;;;1.60;1.00;;;14.70;98.20;;;;;;5016980;28;20488;-79
2021/07/20 04:38:13;;;;;;;1.57;1.00;;;14.70;98.20;;;;;;5020206;28;20495;-80
2021/07/20 04:40:42;;;;;;;1.53;1.00;;;14.70;98.20;;;;;;5007823;28;20465;-80
2021/07/20 04:43:09;;;;;;;1.57;1.00;;;14.80;98.20;;;;;;5005608;28;20749;-80
2021/07/20 04:45:42;;;;;;;1.60;1.00;;;14.80;98.20;;;;;;5008050;28;20856;-79
2021/07/20 04:48:12;;;;;;;1.57;1.00;;;14.80;98.20;;;;;;5020325;28;20480;-79
2021/07/20 04:50:42;;;;;;;1.53;1.10;;;14.80;98.20;;;;;;5003908;28;20492;-79
2021/07/20 04:53:13;;;;;;;1.50;0.90;;;14.90;98.20;;;;;;5007353;28;20959;-79
2021/07/20 04:55:46;;;;;;;1.57;1.00;;;15.00;98.20;;;;;;5006320;28;20481;-79
2021/07/20 04:58:14;;;;;;;1.60;1.00;;;15.00;98.20;;;;;;4998423;28;20760;-78
2021/07/20 05:00:43;;;;;;;1.57;1.00;;;15.10;98.20;;;;;;5008407;28;20461;-78
2021/07/20 05:03:11;;;;;;;1.57;1.00;;;15.20;98.20;;;;;;4996560;28;20492;-79
2021/07/20 05:05:39;;;;;;;1.53;1.00;;;15.30;98.20;;;;;;5009876;28;20490;-80
2021/07/20 05:08:41;;;;;;;1.57;1.00;;;15.40;98.20;;;;;;5018674;28;20494;-80
2021/07/20 05:11:13;;;;;;;1.53;1.00;;;15.50;98.20;;;;;;5009712;28;20543;-79
2021/07/20 05:13:41;;;;;;;1.53;1.00;;;15.60;98.20;;;;;;5028534;28;20530;-79
2021/07/20 05:16:12;;;;;;;1.57;1.00;;;15.70;98.20;;;;;;5008533;28;20493;-79
2021/07/20 05:18:40;;;;;;;1.50;1.00;;;15.80;98.20;;;;;;5025831;28;21007;-78
2021/07/20 05:21:07;;;;;;;1.50;0.90;;;16.00;98.20;;;;;;5007632;28;20662;-78
2021/07/20 05:23:42;;;;;;;1.50;1.00;;;16.20;98.20;;;;;;5032963;28;20464;-78
2021/07/20 05:26:24;;;;;;;1.50;0.90;;;16.30;98.20;;;;;;5002305;28;20883;-78
2021/07/20 05:28:54;;;;;;;1.50;1.00;;;16.40;98.20;;;;;;5018790;28;20506;-80
2021/07/20 05:31:24;;;;;;;1.53;0.90;;;16.60;98.20;;;;;;5004795;28;20490;-79
2021/07/20 05:33:51;;;;;;;1.57;1.00;;;16.80;98.20;;;;;;5026190;28;20568;-79
2021/07/20 05:36:19;;;;;;;1.57;1.00;;;17.00;98.20;;;;;;5006007;28;21013;-80
2021/07/20 05:38:46;;;;;;;1.50;1.00;;;17.10;98.20;;;;;;5013394;28;20700;-79
2021/07/20 05:41:18;;;;;;;1.60;1.00;;;17.20;98.20;;;;;;5007632;28;20487;-79
2021/07/20 05:43:45;;;;;;;1.53;1.00;;;17.30;98.20;;;;;;5008839;28;20535;-80
2021/07/20 05:46:16;;;;;;;1.57;1.00;;;17.30;98.20;;;;;;5004954;28;20933;-79
2021/07/20 05:48:49;;;;;;;1.57;1.00;;;17.40;98.20;;;;;;5025323;28;20461;-79
2021/07/20 05:51:17;;;;;;;1.53;0.90;;;17.50;98.20;;;;;;5002795;28;20480;-78
2021/07/20 05:53:50;;;;;;;1.57;0.90;;;17.60;98.20;;;;;;5020379;28;20495;-78
2021/07/20 05:56:21;;;;;;;1.50;1.00;;;17.60;98.20;;;;;;5006362;28;20487;-78
2021/07/20 05:58:48;;;;;;;1.53;1.00;;;17.80;98.20;;;;;;5030491;28;20500;-80
2021/07/20 06:01:32;;;;;;;1.50;1.00;;;17.90;98.20;;;;;;5013829;23;20514;-79
2021/07/20 06:04:07;;;;;;;1.57;0.90;;;17.90;98.20;;;;;;5026763;28;20464;-78
2021/07/20 06:06:39;;;;;;;1.50;1.00;;;18.10;98.20;;;;;;5003468;28;20551;-80
2021/07/20 06:12:13;;;;;;;1.50;1.00;;;18.50;98.20;;;;;;4994045;28;21117;-78
2021/07/20 06:15:04;;;;;;;1.53;1.00;;;18.80;98.20;;;;;;5005741;28;20555;-79
2021/07/20 06:17:39;;;;;;;1.50;0.90;;;19.00;98.00;;;;;;5004382;28;20490;-79
2021/07/20 06:20:12;;;;;;;1.60;1.00;;;19.20;97.40;;;;;;5002258;28;20437;-78
2021/07/20 06:22:44;;;;;;;1.57;0.90;;;19.30;97.00;;;;;;4999552;28;20552;-76
2021/07/20 06:25:15;;;;;;;1.57;0.90;;;19.50;95.50;;;;;;4996386;28;20527;-77
2021/07/20 06:27:44;;;;;;;1.53;1.00;;;19.50;96.10;;;;;;4999992;28;20490;-77
2021/07/20 06:30:20;;;;;;;1.57;0.90;;;19.70;95.80;;;;;;4989813;28;21008;-78
2021/07/20 06:32:47;;;;;;;1.53;0.90;;;19.80;95.70;;;;;;4999383;28;20483;-77
2021/07/20 06:35:15;;;;;;;1.57;0.90;;;19.90;94.50;;;;;;4995568;28;20465;-77
2021/07/20 06:37:47;;;;;;;1.57;0.90;;;19.80;94.30;;;;;;5005414;28;20903;-77
2021/07/20 06:40:17;;;;;;;1.53;0.90;;;20.00;94.80;;;;;;4998499;28;20465;-77
2021/07/20 06:42:45;;;;;;;1.53;0.90;;;20.30;94.50;;;;;;4983993;28;20837;-77
2021/07/20 06:45:15;;;;;;;1.53;0.90;;;20.60;92.80;;;;;;4993834;28;20473;-76
2021/07/20 06:47:43;;;;;;;1.60;1.00;;;20.80;93.00;;;;;;4986369;28;20675;-78
2021/07/20 06:50:15;;;;;;;1.53;0.90;;;20.90;92.30;;;;;;4997441;28;20494;-77
2021/07/20 06:52:45;;;;;;;1.50;0.90;;;21.10;92.00;;;;;;5003015;28;20654;-77
2021/07/20 06:55:13;;;;;;;1.70;1.10;;;21.30;90.80;;;;;;4998441;28;20473;-77
2021/07/20 06:57:44;;;;;;;1.50;0.90;;;21.40;91.10;;;;;;4985582;28;20495;-76
2021/07/20 07:00:41;;;;;;;1.57;1.00;;;21.60;90.60;;;;;;4997372;28;20453;-75
2021/07/20 07:03:11;;;;;;;1.53;0.90;;;21.80;90.20;;;;;;5004118;28;20489;-74
2021/07/20 07:05:40;;;;;;;1.53;0.90;;;21.90;89.80;;;;;;4997149;28;20500;-75
2021/07/20 07:08:10;;;;;;;1.57;0.90;;;22.10;89.60;;;;;;4986031;28;20476;-76
2021/07/20 07:10:38;;;;;;;1.57;0.97;;;22.20;89.60;;;;;;4996192;28;20520;-76
2021/07/20 07:13:09;;;;;;;1.60;1.00;;;22.40;88.90;;;;;;4983640;28;20863;-76
2021/07/20 07:15:39;;;;;;;1.60;1.23;;;22.40;87.40;;;;;;4991928;28;20499;-76
2021/07/20 07:18:07;;;;;;;1.83;1.60;;;22.40;87.90;;;;;;5006342;28;20494;-76
2021/07/20 07:20:36;;;;;;;1.53;0.90;;;22.30;87.90;;;;;;5006630;28;20457;-76
2021/07/20 07:23:04;;;;;;;1.53;0.90;;;22.40;88.20;;;;;;5011636;28;20525;-76
2021/07/20 07:25:32;;;;;;;1.50;0.90;;;22.50;88.00;;;;;;5001352;28;20489;-77
2021/07/20 07:28:00;;;;;;;1.57;0.90;;;22.70;86.90;;;;;;4988095;28;20987;-76
2021/07/20 07:30:28;;;;;;;1.50;0.90;;;22.80;87.30;;;;;;4992775;28;20495;-76
2021/07/20 07:32:55;;;;;;;1.50;1.00;;;22.80;87.50;;;;;;5003053;28;20487;-77
2021/07/20 07:35:31;;;;;;;1.53;0.87;;;23.00;87.60;;;;;;4998030;28;20580;-75
2021/07/20 07:38:00;;;;;;;1.53;0.90;;;23.00;86.40;;;;;;4991970;28;21280;-74
2021/07/20 07:40:30;;;;;;;1.50;0.90;;;23.10;86.60;;;;;;4995347;28;20470;-76
2021/07/20 07:43:01;;;;;;;1.50;0.90;;;23.20;86.00;;;;;;4996724;28;20509;-77
2021/07/20 07:45:38;;;;;;;1.50;0.90;;;23.30;86.90;;;;;;4996286;28;20485;-75
2021/07/20 07:48:06;;;;;;;1.57;0.90;;;23.40;86.20;;;;;;5002958;28;20526;-75
2021/07/20 07:50:36;;;;;;;1.60;1.03;;;23.40;85.60;;;;;;4993900;28;20499;-78
2021/07/20 07:53:06;;;;;;;1.57;0.90;;;23.60;85.20;;;;;;5000308;28;20483;-79
2021/07/20 07:55:34;;;;;;;1.50;0.90;;;23.80;84.00;;;;;;4994982;28;20590;-79
2021/07/20 07:58:01;;;;;;;1.50;0.90;;;23.90;83.70;;;;;;4984864;28;20481;-78
2021/07/20 08:00:30;;;;;;;1.50;0.90;;;24.10;84.20;;;;;;4991436;28;20465;-77
2021/07/20 08:03:00;;;;;;;1.50;0.90;;;24.10;84.30;;;;;;4997691;28;20810;-78
2021/07/20 08:05:30;;;;;;;1.50;0.80;;;24.20;83.00;;;;;;4991640;28;20477;-78
2021/07/20 08:07:59;;;;;;;1.50;0.90;;;24.30;82.90;;;;;;4996388;28;20508;-80
2021/07/20 08:10:29;;;;;;;1.50;0.87;;;24.40;83.10;;;;;;4993259;28;20492;-77
2021/07/20 08:12:58;;;;;;;1.53;0.90;;;24.60;83.60;;;;;;5001873;28;20491;-78
2021/07/20 08:15:26;;;;;;;1.50;0.90;;;24.80;82.90;;;;;;4990901;28;20899;-79
2021/07/20 08:17:54;;;;;;;1.50;0.90;;;25.00;82.10;;;;;;4999297;28;20770;-79
2021/07/20 08:20:24;;;;;;;1.50;0.90;;;25.20;82.50;;;;;;4992547;28;20465;-77
2021/07/20 08:22:52;;;;;;;1.53;0.87;;;25.40;80.90;;;;;;4996084;28;20519;-78
2021/07/20 08:25:27;;;;;;;1.50;0.90;;;25.60;80.60;;;;;;4988471;28;20979;-76
2021/07/20 08:28:04;;;;;;;1.50;0.90;;;25.80;80.30;;;;;;4998330;28;20479;-78
2021/07/20 08:30:35;;;;;;;1.53;0.80;;;25.70;79.60;;;;;;4987225;28;20492;-78
2021/07/20 08:33:03;;;;;;;1.77;1.23;;;25.40;79.20;;;;;;4993865;28;20463;-78
2021/07/20 08:35:34;;;;;;;1.50;0.87;;;25.20;79.00;;;;;;4990077;28;20476;-79
2021/07/20 08:38:07;;;;;;;1.50;0.90;;;24.90;80.50;;;;;;4995385;28;20476;-78
2021/07/20 08:40:46;;;;;;;1.50;0.90;;;24.70;81.70;;;;;;4992787;28;20936;-78
2021/07/20 08:43:29;;;;;;;1.50;0.90;;;24.40;81.30;;;;;;4984440;28;20551;-78
2021/07/20 08:46:19;;;;;;;1.50;0.90;;;24.00;81.70;;;;;;4981839;28;20497;-76
2021/07/20 08:48:59;;;;;;;1.50;0.90;;;23.70;82.60;;;;;;5011609;28;20464;-77
2021/07/20 08:51:35;;;;;;;1.57;0.90;;;23.50;82.70;;;;;;4993151;28;20536;-79
2021/07/20 08:54:12;;;;;;;1.50;0.90;;;23.40;83.50;;;;;;5006061;28;20669;-79
2021/07/20 08:56:44;;;;;;;1.53;0.90;;;23.30;83.60;;;;;;5000579;28;20511;-77
2021/07/20 08:59:23;;;;;;;1.53;1.00;;;23.10;84.00;;;;;;5012372;28;20496;-78
2021/07/20 09:01:54;;;;;;;1.50;0.90;;;22.90;84.70;;;;;;5001540;28;20498;-79
2021/07/20 09:04:23;;;;;;;1.60;1.30;;;22.90;85.00;;;;;;5008874;28;20453;-79
2021/07/20 09:06:56;;;;;;;1.50;0.90;;;22.80;85.40;;;;;;4998999;28;21064;-79
2021/07/20 09:09:27;;;;;;;1.60;1.00;;;22.80;85.20;;;;;;5006678;28;20972;-78
2021/07/20 09:11:57;;;;;;;1.50;0.87;;;23.00;84.10;;;;;;4994509;28;20480;-79
2021/07/20 09:14:33;;;;;;;1.50;1.00;;;23.30;83.40;;;;;;5002754;28;20474;-80
2021/07/20 09:17:09;;;;;;;1.53;0.90;;;23.60;83.00;;;;;;4995716;28;20479;-78
2021/07/20 09:19:48;;;;;;;1.50;0.90;;;24.10;81.20;;;;;;5005515;28;20839;-79
2021/07/20 09:22:19;;;;;;;1.50;0.87;;;24.50;80.70;;;;;;5002509;28;20490;-76
2021/07/20 09:24:54;;;;;;;1.50;0.80;;;24.90;78.70;;;;;;5005163;28;20465;-79
2021/07/20 09:27:34;;;;;;;1.53;0.90;;;25.00;78.00;;;;;;5001337;28;20479;-77
2021/07/20 09:30:07;;;;;;;1.90;1.30;;;25.00;77.00;;;;;;5005168;28;21026;-78
2021/07/20 09:32:44;;;;;;;1.50;0.90;;;24.90;77.40;;;;;;5004473;28;20488;-78
2021/07/20 09:35:18;;;;;;;1.50;0.90;;;24.80;78.50;;;;;;4995523;28;20468;-79
2021/07/20 09:37:55;;;;;;;1.60;1.10;;;24.70;79.10;;;;;;5000217;28;20514;-78
2021/07/20 09:40:40;;;;;;;1.50;0.90;;;24.40;78.80;;;;;;4998509;28;20469;-78
2021/07/20 09:43:14;;;;;;;1.57;0.90;;;24.30;79.70;;;;;;5002475;28;20527;-79
2021/07/20 09:45:46;;;;;;;1.50;0.80;;;24.20;80.00;;;;;;4996451;28;20577;-79
2021/07/20 09:48:23;;;;;;;1.50;0.80;;;24.20;80.00;;;;;;4988218;28;20457;-78
2021/07/20 09:51:02;;;;;;;1.50;0.90;;;24.20;80.10;;;;;;4988101;28;20484;-77
2021/07/20 09:53:54;;;;;;;1.50;0.90;;;24.60;80.10;;;;;;5013893;28;20556;-79
2021/07/20 09:56:43;;;;;;;1.50;0.80;;;24.90;80.00;;;;;;4995384;28;20503;-78
2021/07/20 09:59:28;;;;;;;1.50;0.90;;;25.00;79.20;;;;;;5008393;28;20480;-79
2021/07/20 10:02:00;;;;;;;1.50;0.87;;;25.20;78.30;;;;;;4991714;28;20507;-80
2021/07/20 10:04:36;;;;;;;1.57;0.90;;;25.50;76.10;;;;;;4998887;28;20457;-81
2021/07/20 10:07:14;;;;;;;1.53;0.90;;;25.80;75.90;;;;;;4995746;28;20475;-76
2021/07/20 10:09:50;;;;;;;1.70;1.30;;;26.10;75.00;;;;;;5005748;28;20492;-80
2021/07/20 10:12:25;;;;;;;1.60;1.00;;;26.10;74.90;;;;;;5004238;28;20479;-78
2021/07/20 10:15:02;;;;;;;1.50;0.80;;;26.00;76.40;;;;;;5006828;28;20475;-78
2021/07/20 10:17:35;;;;;;;1.50;0.90;;;26.10;75.70;;;;;;5006204;28;20971;-79
2021/07/20 10:20:13;;;;;;;1.50;0.80;;;26.00;75.80;;;;;;5004196;28;20457;-79
2021/07/20 10:22:45;;;;;;;1.50;0.90;;;25.90;76.60;;;;;;5007865;28;20487;-76
2021/07/20 10:25:20;;;;;;;1.53;0.90;;;25.80;76.50;;;;;;5000528;28;20534;-78
2021/07/20 10:28:05;;;;;;;1.70;1.00;;;25.80;77.30;;;;;;5003428;28;20479;-76
2021/07/20 10:30:38;;;;;;;1.50;0.80;;;26.00;75.40;;;;;;5001468;28;20528;-76
2021/07/20 10:33:12;;;;;;;1.50;0.80;;;26.10;75.00;;;;;;5005012;28;20471;-77
2021/07/20 10:35:45;;;;;;;1.50;0.80;;;26.30;75.00;;;;;;5001685;28;20563;-76
2021/07/20 10:38:17;;;;;;;3.07;1.13;;;26.50;75.20;;;;;;4988458;28;20484;-77
2021/07/20 10:40:45;;;;;;;1.50;0.90;;;26.60;74.80;;;;;;5002033;28;20484;-77
2021/07/20 10:43:22;;;;;;;1.50;0.80;;;26.70;74.30;;;;;;4990077;28;20468;-77
2021/07/20 10:45:51;;;;;;;1.50;0.83;;;26.70;74.20;;;;;;4986899;28;20504;-78
2021/07/20 10:48:22;;;;;;;1.50;0.90;;;26.40;73.10;;;;;;5014435;28;20465;-78
2021/07/20 10:50:56;;;;;;;2.57;1.97;;;26.00;74.20;;;;;;4990850;28;20491;-79
2021/07/20 10:53:36;;;;;;;1.50;0.90;;;25.90;75.70;;;;;;5015766;28;20468;-77
2021/07/20 10:56:08;;;;;;;1.50;0.80;;;26.00;74.90;;;;;;4988504;28;20487;-78
2021/07/20 10:58:49;;;;;;;1.50;0.90;;;26.20;75.10;;;;;;5014633;28;20469;-79
2021/07/20 11:01:22;;;;;;;1.50;0.90;;;26.40;75.30;;;;;;4991578;28;20483;-80
2021/07/20 11:04:10;;;;;;;1.73;1.40;;;26.70;75.00;;;;;;5004674;28;21020;-77
2021/07/20 11:06:42;;;;;;;1.60;1.10;;;26.90;73.10;;;;;;5005562;28;20498;-77
2021/07/20 11:09:20;;;;;;;1.50;0.80;;;27.10;73.80;;;;;;5002032;28;20821;-78
2021/07/20 11:11:52;;;;;;;1.50;0.80;;;27.10;72.60;;;;;;4982199;28;20483;-77
2021/07/20 11:14:29;;;;;;;1.50;0.90;;;27.20;71.60;;;;;;5003456;28;20475;-77
2021/07/20 11:17:00;;;;;;;1.50;0.90;;;27.30;71.80;;;;;;4998534;28;20726;-78
2021/07/20 11:19:36;;;;;;;1.50;0.87;;;27.30;71.10;;;;;;5003119;28;20471;-77
2021/07/20 11:22:12;;;;;;;1.50;0.80;;;27.20;72.00;;;;;;5002874;28;20678;-76
2021/07/20 11:24:44;;;;;;;1.50;0.90;;;27.00;72.00;;;;;;5000538;28;20491;-77
2021/07/20 11:27:17;;;;;;;1.50;0.90;;;27.10;71.80;;;;;;4997783;28;20920;-79
2021/07/20 11:29:49;;;;;;;1.50;0.80;;;27.00;70.80;;;;;;5006043;28;20468;-78
2021/07/20 11:32:31;;;;;;;1.50;0.80;;;26.70;72.60;;;;;;5004015;28;20855;-79
2021/07/20 11:35:04;;;;;;;1.50;0.90;;;26.70;72.10;;;;;;4998565;28;20728;-76
2021/07/20 11:37:34;;;;;;;1.50;0.80;;;26.80;71.30;;;;;;5003629;28;20483;-76
2021/07/20 11:40:05;;;;;;;1.50;0.80;;;27.00;73.20;;;;;;5000099;28;20474;-78
2021/07/20 11:42:45;;;;;;;2.00;1.13;;;27.30;71.50;;;;;;4986020;28;20488;-79
2021/07/20 11:45:16;;;;;;;1.50;0.90;;;27.60;70.70;;;;;;4994879;28;20522;-79
2021/07/20 11:47:53;;;;;;;1.50;0.80;;;27.70;70.80;;;;;;5005694;28;20479;-79
2021/07/20 11:50:35;;;;;;;1.50;0.80;;;27.80;71.90;;;;;;4993041;28;20492;-79
2021/07/20 11:53:15;;;;;;;1.50;0.80;;;27.90;69.90;;;;;;5004406;28;20860;-79
2021/07/20 11:55:51;;;;;;;1.50;0.80;;;28.00;68.70;;;;;;5001520;28;20484;-78
2021/07/20 11:58:50;;;;;;;1.50;0.87;;;28.20;69.10;;;;;;4984921;28;20475;-76
2021/07/20 12:01:47;;;;;;;1.50;0.80;;;28.30;68.70;;;;;;4971214;28;20473;-77
2021/07/20 12:04:40;;;;;;;1.47;0.80;;;28.30;68.40;;;;;;5005702;28;20925;-77
2021/07/20 12:07:28;;;;;;;1.50;0.80;;;28.00;67.40;;;;;;4996228;28;20479;-77
2021/07/20 12:10:10;;;;;;;1.50;0.80;;;27.60;69.10;;;;;;4995694;28;20464;-77
2021/07/20 12:12:57;;;;;;;1.50;0.80;;;27.20;69.60;;;;;;5004374;28;20522;-81
2021/07/20 12:15:26;;;;;;;1.50;0.90;;;27.20;70.80;;;;;;4999266;28;20469;-79
2021/07/20 12:17:54;;;;;;;1.50;0.80;;;27.30;70.50;;;;;;4997564;28;20483;-78
2021/07/20 12:20:25;;;;;;;1.47;0.80;;;27.50;71.90;;;;;;5001159;28;20461;-78
2021/07/20 12:22:55;;;;;;;1.50;0.80;;;27.70;70.80;;;;;;5003842;28;21128;-77
2021/07/20 12:25:24;;;;;;;1.50;0.80;;;27.90;70.30;;;;;;4999865;28;20479;-79
2021/07/20 12:27:58;;;;;;;1.50;0.80;;;28.10;69.30;;;;;;5004599;28;20571;-78
2021/07/20 12:30:34;;;;;;;1.50;0.80;;;28.40;68.60;;;;;;5003645;28;20470;-80
2021/07/20 12:33:04;;;;;;;1.50;1.00;;;28.70;68.80;;;;;;5009576;28;21168;-79
2021/07/20 12:35:32;;;;;;;1.50;0.80;;;28.90;68.70;;;;;;5001324;28;20498;-77
2021/07/20 12:38:03;;;;;;;1.50;0.80;;;29.10;68.20;;;;;;5008754;28;20478;-80
2021/07/20 12:40:35;;;;;;;1.50;0.80;;;29.20;66.20;;;;;;4996152;28;20464;-78
2021/07/20 12:43:10;;;;;;;1.50;0.80;;;29.10;67.40;;;;;;4992326;28;20511;-79
2021/07/20 12:45:40;;;;;;;1.50;0.80;;;29.00;66.90;;;;;;5007059;28;20482;-80
2021/07/20 12:48:20;;;;;;;1.50;0.80;;;28.90;66.40;;;;;;4992357;28;20491;-79
2021/07/20 12:50:47;;;;;;;1.50;0.80;;;28.90;64.90;;;;;;4992760;28;20472;-78
2021/07/20 12:53:17;;;;;;;1.50;0.80;;;29.00;65.90;;;;;;5015546;28;20480;-78
2021/07/20 12:55:45;;;;;;;1.60;1.10;;;29.10;66.60;;;;;;5001245;28;20955;-82
2021/07/20 12:58:16;;;;;;;1.50;0.83;;;29.10;65.50;;;;;;4989693;28;20488;-79
2021/07/20 13:00:44;;;;;;;1.43;0.80;;;29.10;64.70;;;;;;5000773;28;20491;-80
2021/07/20 13:03:13;;;;;;;1.50;0.80;;;29.20;66.60;;;;;;5004329;28;20515;-80
2021/07/20 13:05:41;;;;;;;1.50;0.90;;;29.20;66.00;;;;;;5000408;28;20930;-78
2021/07/20 13:08:19;;;;;;;1.50;0.80;;;29.30;64.50;;;;;;5006748;28;20473;-80
2021/07/20 13:10:54;;;;;;;1.50;0.80;;;29.20;65.70;;;;;;5001919;28;20470;-80
2021/07/20 13:13:24;;;;;;;1.50;0.80;;;29.40;66.50;;;;;;4986199;28;20484;-78
2021/07/20 13:15:52;;;;;;;1.50;0.90;;;29.50;66.50;;;;;;4984906;28;20491;-78
2021/07/20 13:18:27;;;;;;;1.47;0.80;;;29.60;63.90;;;;;;5010879;28;20473;-79